Forks, WA

11:03 AM PDT on September 18, 2014 (GMT -0700)
Bowerman | Change Station
CLOSE
Current Station
Airport
Location: Hoquiam,
Elevation: 13 ft
Nearby Weather Stations
4.0 Earthquake: Seabeck, Washington (1 day ago)  

Elev 13 ft 46.97 °N, 123.93 °W | Updated 10 minutes ago

Overcast
Overcast
62 °F
Feels Like 62 °F
N
6
Wind Variable Wind from SW

Today
High -- | Low -- °F
--% Chance of Precip.
Yesterday
High -- | Low -- °F
Precip. -- in
6:59 AM 7:23 PM
Waning Crescent, 25% visible
Pressure 29.86 in
Visibility 6.0 miles
Clouds Few 800 ft
Overcast 2000 ft
Dew Point 59 °F
Humidity 90%
Rainfall 0.06 in
Snow Depth 0 in , 0 in , 0 in
UV 1 out of 12
Pollen .40 out of 12
Air Quality Not available.
Flu Activity Not available.
METAR KHQM 181753Z AUTO 22005KT 6SM BR FEW008 OVC020 17/15 A2985 RMK AO2 SLP111 T01670150 10167 20150 53020

More Conditions Fewer Conditions

Pressure 29.86 in
Visibility 6.0 miles
Clouds Few 800 ft
Overcast 2000 ft
Dew Point 59 °F
Humidity 90%
Rainfall 0.06 in
Snow Depth 0 in , 0 in , 0 in
UV 1 out of 12
Pollen .40 out of 12
Air Quality Not available.
Flu Activity Not available.
METAR KHQM 181753Z AUTO 22005KT 6SM BR FEW008 OVC020 17/15 A2985 RMK AO2 SLP111 T01670150 10167 20150 53020

More Conditions Fewer Conditions

10-Day Weather Forecast

Almanac

Astronomy

Sep. 18, 2014 Rise Set
Actual Time 6:59 AM PDT 7:23 PM PDT
Civil Twilight 6:28 AM PDT 7:54 PM PDT
Nautical Twilight 5:51 AM PDT 8:31 PM PDT
Astronomical Twilight 5:13 AM PDT 9:09 PM PDT
Moon 1:39 AM PDT 4:34 PM PDT
Length of Visible Light 13h 26m
Length of Day
12h 24m
Tomorrow will be 3m 26s shorter.
Waning Crescent, 25% of the Moon is Illuminated
Today
Waning Crescent
Sep 24
New
Oct 1
First Quarter
Oct 8
Full
Oct 15
Last Quarter

Today's Extremes

State Highs State Lows

Community

WunderPhotos

Upload Photos

1,754,410 photos uploaded!

Nearby

Snow Depth

Station Depth Elevation
Fish Lake 0 in 3371 ft
White Pass E.S. 0 in 4500 ft
Sasse Ridge 0 in 4200 ft
Mf Nooksack 0 in 4980 ft
Touchet 0 in 5530 ft

Earthquake Activity

City Distance Mag. Time & Date
Seabeck, Washington 71 miles 4.0 3:06 AM PDT
2014-09-17
Minimum magnitude displayed is 2.5.

Coastal Water Temperatures

Place Temperature
La Push, WA 59.0 °F
Westport, WA 57.9 °F
Port Angeles, WA 52.0 °F
Astoria, OR 64.9 °F

Nearby Weather Stations